Time;durP1;ratioP1;P1;durP2;ratioP2;P2;SDS_P1;SDS_P2;PMS_P1;PMS_P2;Temp;Humidity;BMP_temperature;BMP_pressure;BME280_temperature;BME280_humidity;BME280_pressure;Samples;Min_cycle;Max_cycle;Signal;HPM_P1;HPM_P2
2023/12/16 00:02:02;;;;;;;52.83;6.90;;;;;;;4.95;100.00;102380.19;5075933;28;20081;-70
2023/12/16 00:04:28;;;;;;;66.88;7.25;;;;;;;5.14;100.00;102402.72;5041401;28;20032;-70
2023/12/16 00:06:53;;;;;;;55.85;6.53;;;;;;;5.13;100.00;102404.56;5075840;28;20021;-70
2023/12/16 00:09:18;;;;;;;45.05;5.82;;;;;;;5.06;100.00;102381.16;5075941;28;20032;-70
2023/12/16 00:11:44;;;;;;;57.45;7.05;;;;;;;5.13;100.00;102395.69;5056807;28;20036;-70
2023/12/16 00:14:09;;;;;;;52.53;7.30;;;;;;;5.00;100.00;102366.50;5057725;28;20025;-70
2023/12/16 00:16:34;;;;;;;62.35;7.63;;;;;;;5.16;100.00;102388.28;5041188;28;20031;-69
2023/12/16 00:19:00;;;;;;;61.95;8.27;;;;;;;5.15;100.00;102375.06;5058186;28;20054;-69
2023/12/16 00:21:25;;;;;;;62.85;7.60;;;;;;;5.11;100.00;102355.78;5057861;28;20055;-69
2023/12/16 00:23:50;;;;;;;67.72;7.82;;;;;;;5.11;100.00;102353.13;5075682;28;20479;-69
2023/12/16 00:26:17;;;;;;;64.13;8.48;;;;;;;5.10;100.00;102356.78;5076052;28;20090;-70
2023/12/16 00:28:42;;;;;;;45.70;6.68;;;;;;;5.11;100.00;102363.78;5075711;28;20039;-69
2023/12/16 00:31:08;;;;;;;54.08;8.82;;;;;;;5.10;100.00;102361.25;5058017;28;20032;-69
2023/12/16 00:33:33;;;;;;;64.85;7.72;;;;;;;4.99;100.00;102350.59;5057968;28;20071;-69
2023/12/16 00:35:58;;;;;;;53.72;8.75;;;;;;;5.15;100.00;102367.91;5041325;28;20036;-69
2023/12/16 00:38:25;;;;;;;57.70;6.95;;;;;;;5.20;100.00;102370.22;5058029;28;20170;-71
2023/12/16 00:40:50;;;;;;;52.58;6.68;;;;;;;5.26;100.00;102376.84;5075759;28;20499;-70
2023/12/16 00:43:15;;;;;;;65.07;8.18;;;;;;;5.14;100.00;102363.56;5041112;28;20043;-70
2023/12/16 00:45:41;;;;;;;62.50;8.18;;;;;;;5.26;100.00;102383.03;5075845;28;20066;-70
2023/12/16 00:48:06;;;;;;;63.83;7.65;;;;;;;5.25;100.00;102384.00;5040956;28;20036;-71
2023/12/16 00:50:32;;;;;;;55.75;7.10;;;;;;;5.27;100.00;102389.25;5040932;28;20059;-70
2023/12/16 00:52:57;;;;;;;58.42;7.75;;;;;;;5.27;100.00;102384.75;5040921;28;20139;-70
2023/12/16 00:55:22;;;;;;;62.13;8.20;;;;;;;5.24;100.00;102390.34;5040674;28;20029;-70
2023/12/16 00:57:48;;;;;;;58.10;8.23;;;;;;;5.08;100.00;102356.03;5057369;28;20040;-69
2023/12/16 01:00:13;;;;;;;65.50;7.78;;;;;;;5.23;100.00;102388.66;5075131;28;20040;-70
2023/12/16 01:02:39;;;;;;;58.38;7.95;;;;;;;5.21;100.00;102387.91;5057263;28;20398;-70
2023/12/16 01:05:04;;;;;;;49.90;6.72;;;;;;;5.18;100.00;102391.66;5040655;28;20092;-69
2023/12/16 01:07:30;;;;;;;55.60;6.70;;;;;;;5.07;100.00;102367.69;5075375;28;20046;-69
2023/12/16 01:09:55;;;;;;;56.28;7.38;;;;;;;5.21;100.00;102384.41;5077150;28;20032;-69
2023/12/16 01:12:20;;;;;;;56.67;7.50;;;;;;;5.20;100.00;102383.56;5044866;28;20514;-70
2023/12/16 01:14:46;;;;;;;47.15;5.90;;;;;;;5.26;100.00;102376.84;5079194;28;20116;-70
2023/12/16 01:17:11;;;;;;;60.17;7.13;;;;;;;5.08;100.00;102342.69;5061271;28;20031;-70
2023/12/16 01:19:37;;;;;;;45.60;6.35;;;;;;;5.25;100.00;102353.81;5061398;28;20490;-70
2023/12/16 01:22:02;;;;;;;48.72;6.78;;;;;;;5.26;100.00;102368.84;5061000;28;20059;-70
2023/12/16 01:24:29;;;;;;;54.05;7.00;;;;;;;5.26;100.00;102367.03;5061167;28;20044;-70
2023/12/16 01:26:54;;;;;;;44.22;5.95;;;;;;;5.28;100.00;102370.41;5061194;28;20039;-70
2023/12/16 01:29:20;;;;;;;44.55;6.47;;;;;;;5.30;100.00;102372.97;5061306;28;20029;-69
2023/12/16 01:31:45;;;;;;;54.38;7.18;;;;;;;5.30;100.00;102378.31;5044223;28;20056;-70
2023/12/16 01:34:10;;;;;;;46.42;5.82;;;;;;;5.35;100.00;102384.94;5060714;28;20028;-69
2023/12/16 01:36:36;;;;;;;55.03;7.95;;;;;;;5.31;100.00;102382.66;5043958;28;20419;-70
2023/12/16 01:39:02;;;;;;;49.05;6.93;;;;;;;5.30;100.00;102384.50;5060850;28;20028;-69
2023/12/16 01:41:27;;;;;;;51.53;7.78;;;;;;;5.15;100.00;102365.25;5024513;28;20139;-70
2023/12/16 01:43:53;;;;;;;46.58;6.47;;;;;;;5.26;100.00;102383.03;5058795;28;20090;-69
2023/12/16 01:46:20;;;;;;;53.80;7.00;;;;;;;5.29;100.00;102393.47;5058892;28;20104;-71
2023/12/16 01:48:46;;;;;;;43.33;6.95;;;;;;;5.25;100.00;102375.16;5058507;28;20020;-70
2023/12/16 01:51:13;;;;;;;49.90;6.60;;;;;;;5.31;100.00;102377.34;5058063;28;20602;-70
2023/12/16 01:53:40;;;;;;;49.58;6.85;;;;;;;5.33;100.00;102381.59;5057020;28;20063;-70
2023/12/16 01:56:07;;;;;;;45.58;5.78;;;;;;;5.36;100.00;102383.13;5057033;28;20075;-70
2023/12/16 01:58:33;;;;;;;44.28;5.97;;;;;;;5.21;100.00;102347.03;5057329;28;20043;-70
2023/12/16 02:00:59;;;;;;;49.25;6.63;;;;;;;5.34;100.00;102353.06;5056909;28;20033;-70
2023/12/16 02:03:27;;;;;;;51.63;6.22;;;;;;;5.47;100.00;102356.41;5040374;28;20543;-70
2023/12/16 02:05:52;;;;;;;51.38;6.43;;;;;;;5.40;100.00;102348.06;5058424;28;20047;-70
2023/12/16 02:08:18;;;;;;;42.85;5.82;;;;;;;5.49;100.00;102349.09;5057071;28;20020;-71
2023/12/16 02:10:44;;;;;;;48.42;6.47;;;;;;;5.49;100.00;102338.41;5056907;28;20051;-70
2023/12/16 02:13:09;;;;;;;47.03;6.68;;;;;;;5.50;100.00;102344.63;5056883;28;20029;-70
2023/12/16 02:15:35;;;;;;;51.30;6.40;;;;;;;5.47;100.00;102348.41;5058100;28;20031;-70
2023/12/16 02:18:00;;;;;;;44.28;7.22;;;;;;;5.47;100.00;102361.75;5056687;28;20186;-70
2023/12/16 02:20:26;;;;;;;48.30;6.82;;;;;;;5.38;100.00;102360.69;5056615;28;20025;-70
2023/12/16 02:22:53;;;;;;;50.92;6.30;;;;;;;5.33;100.00;102346.00;5058139;28;20438;-70
2023/12/16 02:25:19;;;;;;;54.78;6.15;;;;;;;5.41;100.00;102360.44;5058314;28;20076;-70
2023/12/16 02:27:45;;;;;;;51.45;6.55;;;;;;;5.37;100.00;102355.47;5056368;28;20053;-71
2023/12/16 02:30:12;;;;;;;43.85;6.32;;;;;;;4.97;100.00;102289.38;5056757;28;20028;-71
2023/12/16 02:32:38;;;;;;;53.78;6.15;;;;;;;5.33;100.00;102338.00;5056854;28;20037;-71
2023/12/16 02:35:04;;;;;;;50.20;6.50;;;;;;;5.39;100.00;102345.50;5057695;28;20029;-70
2023/12/16 02:37:29;;;;;;;51.50;6.75;;;;;;;5.36;100.00;102340.41;5056079;28;20120;-71
2023/12/16 02:39:54;;;;;;;49.05;6.20;;;;;;;5.36;100.00;102337.75;5057598;28;20101;-70
2023/12/16 02:42:20;;;;;;;46.30;5.50;;;;;;;5.35;100.00;102339.56;5059726;28;20028;-70
2023/12/16 02:44:45;;;;;;;51.25;6.47;;;;;;;5.36;100.00;102340.41;5059532;28;20055;-70
2023/12/16 02:47:11;;;;;;;41.08;5.85;;;;;;;5.34;100.00;102343.22;5077539;28;20024;-70
2023/12/16 02:49:36;;;;;;;54.78;6.68;;;;;;;5.25;100.00;102327.13;5059237;28;20040;-70
2023/12/16 02:52:01;;;;;;;63.78;8.15;;;;;;;5.35;100.00;102346.75;5059252;28;20075;-70
2023/12/16 02:54:27;;;;;;;46.38;6.95;;;;;;;5.34;100.00;102353.91;5059436;28;20090;-71
2023/12/16 02:56:53;;;;;;;49.50;6.10;;;;;;;5.28;100.00;102365.09;5076999;28;20024;-70
2023/12/16 02:59:18;;;;;;;48.78;6.63;;;;;;;4.88;100.00;102300.81;5077420;28;20505;-70
2023/12/16 03:01:44;;;;;;;49.20;6.35;;;;;;;5.01;100.00;102328.16;5077506;28;20479;-70
2023/12/16 03:04:09;;;;;;;48.88;6.80;;;;;;;5.03;100.00;102346.72;5059382;28;20094;-70
2023/12/16 03:06:36;;;;;;;53.55;6.97;;;;;;;5.05;100.00;102350.09;5042478;28;20080;-70
2023/12/16 03:09:02;;;;;;;52.85;7.20;;;;;;;5.03;100.00;102344.03;5042668;28;20029;-70
2023/12/16 03:11:27;;;;;;;55.38;7.70;;;;;;;4.99;100.00;102338.09;5076876;28;20036;-70
2023/12/16 03:13:53;;;;;;;48.53;7.85;;;;;;;4.97;100.00;102332.06;5059242;28;20024;-70
2023/12/16 03:16:20;;;;;;;50.15;8.00;;;;;;;4.97;100.00;102320.53;5059009;28;20064;-70
2023/12/16 03:18:45;;;;;;;57.58;8.35;;;;;;;4.94;100.00;102308.31;5058543;28;20039;-70
2023/12/16 03:21:10;;;;;;;53.60;8.05;;;;;;;4.93;100.00;102322.59;5075312;28;20033;-71
2023/12/16 03:23:36;;;;;;;56.80;8.13;;;;;;;4.94;100.00;102324.31;5057643;28;20056;-70
2023/12/16 03:26:02;;;;;;;56.35;8.70;;;;;;;4.93;100.00;102334.13;5057617;28;20336;-71
2023/12/16 03:28:27;;;;;;;47.72;7.45;;;;;;;4.94;100.00;102330.50;5057695;28;20431;-70
2023/12/16 03:30:52;;;;;;;61.38;7.53;;;;;;;4.93;100.00;102323.47;5058555;28;20104;-70
2023/12/16 03:33:18;;;;;;;49.38;8.02;;;;;;;4.91;100.00;102327.22;5057514;28;20055;-70
2023/12/16 03:35:43;;;;;;;41.90;6.45;;;;;;;4.88;100.00;102312.31;5041688;28;20044;-70
2023/12/16 03:38:08;;;;;;;44.83;6.80;;;;;;;4.89;100.00;102300.66;5057683;28;20044;-70
2023/12/16 03:40:34;;;;;;;52.97;7.05;;;;;;;4.98;100.00;102301.75;5076309;28;20084;-70
2023/12/16 03:42:59;;;;;;;47.58;6.25;;;;;;;5.09;100.00;102309.69;5041469;28;20504;-70
2023/12/16 03:45:25;;;;;;;57.13;6.60;;;;;;;5.04;100.00;102293.25;5075834;28;20063;-71
2023/12/16 03:47:50;;;;;;;48.10;6.57;;;;;;;5.13;100.00;102304.97;5041804;28;20020;-71
2023/12/16 03:50:16;;;;;;;42.90;5.85;;;;;;;5.13;100.00;102302.28;5058419;28;20111;-70
2023/12/16 03:52:41;;;;;;;41.10;6.38;;;;;;;5.12;100.00;102306.78;5057706;28;20032;-70
2023/12/16 03:55:07;;;;;;;44.67;6.28;;;;;;;5.10;100.00;102291.88;5041276;28;20085;-70
2023/12/16 03:57:33;;;;;;;45.78;6.30;;;;;;;5.12;100.00;102284.59;5057936;28;20111;-70
2023/12/16 03:59:59;;;;;;;40.10;5.78;;;;;;;5.03;100.00;102269.34;5058363;28;20103;-70
2023/12/16 04:02:25;;;;;;;48.45;5.93;;;;;;;5.00;100.00;102267.81;5076303;28;20039;-71
2023/12/16 04:04:50;;;;;;;41.20;6.38;;;;;;;5.15;100.00;102285.19;5076121;28;20406;-70
2023/12/16 04:07:16;;;;;;;50.63;6.07;;;;;;;5.11;100.00;102267.75;5076403;28;20034;-70
2023/12/16 04:09:41;;;;;;;44.45;6.50;;;;;;;5.14;100.00;102271.97;5076396;28;20470;-70
2023/12/16 04:12:07;;;;;;;41.08;5.95;;;;;;;5.13;100.00;102276.47;5058102;28;20563;-70
2023/12/16 04:14:39;;;;;;;42.53;5.90;;;;;;;5.02;100.00;102271.16;5076351;28;20487;-70
2023/12/16 04:17:05;;;;;;;47.95;6.05;;;;;;;4.96;100.00;102258.34;5041455;28;20033;-70
2023/12/16 04:19:31;;;;;;;41.00;5.55;;;;;;;4.92;100.00;102248.91;5058507;28;20119;-71
2023/12/16 04:21:56;;;;;;;46.92;6.10;;;;;;;5.00;100.00;102246.47;5057534;28;20119;-70
2023/12/16 04:24:21;;;;;;;36.90;5.28;;;;;;;4.96;100.00;102245.00;5058278;28;20025;-71
2023/12/16 04:26:47;;;;;;;41.58;6.13;;;;;;;5.07;100.00;102260.13;5057800;28;20028;-70
2023/12/16 04:29:12;;;;;;;49.47;5.82;;;;;;;5.03;100.00;102248.84;5057997;28;20058;-70
2023/12/16 04:31:38;;;;;;;38.78;5.65;;;;;;;5.11;100.00;102253.56;5039602;28;20506;-70
2023/12/16 04:34:04;;;;;;;43.05;5.50;;;;;;;5.11;100.00;102246.41;5039200;28;20059;-70
2023/12/16 04:36:30;;;;;;;52.95;7.00;;;;;;;4.92;100.00;102200.88;5057683;28;20020;-70
2023/12/16 04:38:55;;;;;;;34.33;4.82;;;;;;;5.14;100.00;102224.81;5057325;28;20032;-70
2023/12/16 04:41:21;;;;;;;42.67;5.93;;;;;;;5.16;100.00;102228.16;5057114;28;20057;-70
2023/12/16 04:43:46;;;;;;;47.78;6.68;;;;;;;5.00;100.00;102195.78;5057605;28;20055;-70
2023/12/16 04:46:12;;;;;;;43.40;5.88;;;;;;;5.17;100.00;102235.22;5062193;28;20028;-70
2023/12/16 04:48:37;;;;;;;48.42;6.80;;;;;;;5.10;100.00;102212.69;5061599;28;20620;-70
2023/12/16 04:51:04;;;;;;;43.08;6.35;;;;;;;5.13;100.00;102217.78;5079856;28;20055;-70
2023/12/16 04:53:30;;;;;;;48.05;6.75;;;;;;;5.11;100.00;102222.38;5061665;28;20376;-71
2023/12/16 04:55:55;;;;;;;42.25;6.72;;;;;;;5.09;100.00;102237.66;5080025;28;20047;-70
2023/12/16 04:58:21;;;;;;;42.65;6.68;;;;;;;4.85;100.00;102203.22;5045082;28;20128;-71
2023/12/16 05:00:46;;;;;;;48.33;6.80;;;;;;;5.06;100.00;102237.91;5061487;28;20102;-70
2023/12/16 05:03:12;;;;;;;45.25;6.35;;;;;;;5.05;100.00;102230.91;5045118;28;20033;-71
2023/12/16 05:05:37;;;;;;;43.65;5.82;;;;;;;5.05;100.00;102209.56;5061578;28;20539;-71
2023/12/16 05:08:02;;;;;;;41.85;6.00;;;;;;;5.05;100.00;102206.03;5045012;28;20060;-71
2023/12/16 05:10:28;;;;;;;42.38;5.60;;;;;;;5.06;100.00;102215.72;5045075;28;20073;-71
2023/12/16 05:12:54;;;;;;;51.60;7.20;;;;;;;4.73;100.00;102161.56;5045074;28;20028;-71
2023/12/16 05:15:19;;;;;;;46.35;6.90;;;;;;;4.97;100.00;102212.03;5061629;28;20029;-70
2023/12/16 05:17:45;;;;;;;45.55;7.43;;;;;;;4.95;100.00;102208.63;5061249;28;20502;-70
2023/12/16 05:20:10;;;;;;;42.95;6.15;;;;;;;4.88;100.00;102189.63;5061262;28;20036;-69
2023/12/16 05:22:36;;;;;;;49.95;6.50;;;;;;;5.03;100.00;102229.31;5044372;28;20132;-70
2023/12/16 05:25:02;;;;;;;41.15;6.32;;;;;;;4.91;100.00;102201.88;5061090;28;20491;-70
2023/12/16 05:27:28;;;;;;;55.35;7.38;;;;;;;5.00;100.00;102225.13;5058835;28;20514;-70
2023/12/16 05:29:54;;;;;;;45.47;6.18;;;;;;;4.84;100.00;102184.69;5058868;28;20025;-71
2023/12/16 05:32:19;;;;;;;49.72;6.30;;;;;;;5.03;100.00;102229.31;5060881;28;20059;-70
2023/12/16 05:34:45;;;;;;;37.90;5.47;;;;;;;5.04;100.00;102226.53;5059980;28;20119;-70
2023/12/16 05:37:10;;;;;;;43.33;6.70;;;;;;;4.92;100.00;102203.56;5060927;28;20044;-70
2023/12/16 05:39:35;;;;;;;46.60;6.22;;;;;;;5.09;100.00;102231.47;5044152;28;20031;-70
2023/12/16 05:42:01;;;;;;;48.42;6.18;;;;;;;5.11;100.00;102230.38;5027385;28;20151;-71
2023/12/16 05:44:26;;;;;;;44.72;7.53;;;;;;;5.11;100.00;102234.88;5078993;28;20386;-71
2023/12/16 05:46:52;;;;;;;53.58;6.53;;;;;;;5.10;100.00;102226.03;5078247;28;20039;-71
2023/12/16 05:49:17;;;;;;;53.42;6.53;;;;;;;5.08;100.00;102219.13;5078876;28;20122;-70
2023/12/16 05:51:43;;;;;;;59.15;6.80;;;;;;;4.87;100.00;102185.28;5044696;28;20040;-71
2023/12/16 05:54:08;;;;;;;49.50;5.93;;;;;;;4.87;100.00;102189.78;5060608;28;20088;-70
2023/12/16 05:56:34;;;;;;;38.53;5.97;;;;;;;5.07;100.00;102212.94;5078154;28;20020;-70
2023/12/16 05:58:59;;;;;;;50.00;6.32;;;;;;;5.11;100.00;102213.53;5043959;28;20115;-70
2023/12/16 06:01:25;;;;;;;62.10;7.07;;;;;;;5.12;100.00;102199.22;5077410;28;20032;-70
2023/12/16 06:03:51;;;;;;;50.83;6.50;;;;;;;5.14;100.00;102213.28;5059722;28;20513;-70
2023/12/16 06:06:16;;;;;;;44.63;5.90;;;;;;;5.04;100.00;102191.88;5078016;28;20032;-70
2023/12/16 06:08:42;;;;;;;48.03;6.05;;;;;;;5.24;100.00;102211.53;5078657;28;20021;-70
2023/12/16 06:11:14;;;;;;;59.88;7.57;;;;;;;5.25;100.00;102212.38;5078276;28;20032;-70
2023/12/16 06:13:41;;;;;;;56.88;6.43;;;;;;;5.24;100.00;102202.69;5060071;28;20025;-72
2023/12/16 06:16:09;;;;;;;49.03;5.97;;;;;;;5.34;100.00;102211.59;5078472;28;20029;-69
2023/12/16 06:18:34;;;;;;;49.58;6.43;;;;;;;5.31;100.00;102210.03;5077637;28;20052;-70
2023/12/16 06:21:00;;;;;;;61.30;7.03;;;;;;;5.23;100.00;102185.84;5077252;28;20032;-70
2023/12/16 06:23:26;;;;;;;55.17;6.07;;;;;;;5.30;100.00;102212.84;5060303;28;20033;-70
2023/12/16 06:25:52;;;;;;;56.85;6.32;;;;;;;5.24;100.00;102190.19;5060268;28;20027;-71
2023/12/16 06:28:17;;;;;;;60.78;6.78;;;;;;;5.29;100.00;102203.13;5077535;28;20028;-70
2023/12/16 06:30:43;;;;;;;57.80;5.97;;;;;;;5.11;100.00;102182.38;5060080;28;20047;-70
2023/12/16 06:33:08;;;;;;;54.67;6.47;;;;;;;5.33;100.00;102207.22;5060035;28;20055;-70
2023/12/16 06:35:34;;;;;;;67.68;7.30;;;;;;;5.25;100.00;102188.34;5026644;28;20529;-70
2023/12/16 06:37:59;;;;;;;63.45;6.53;;;;;;;5.13;100.00;102168.88;5044222;28;20027;-69
2023/12/16 06:40:25;;;;;;;52.83;7.32;;;;;;;5.28;100.00;102185.44;5081345;28;20071;-70
2023/12/16 06:42:50;;;;;;;52.47;6.45;;;;;;;5.35;100.00;102194.59;5080504;28;20510;-71
2023/12/16 06:45:15;;;;;;;66.78;8.23;;;;;;;5.35;100.00;102199.94;5080413;28;20111;-71
2023/12/16 06:47:41;;;;;;;64.32;6.47;;;;;;;5.37;100.00;102187.31;5062521;28;20020;-69
2023/12/16 06:50:08;;;;;;;44.35;5.75;;;;;;;5.31;100.00;102164.66;5044733;28;20037;-69
2023/12/16 06:52:33;;;;;;;53.05;6.68;;;;;;;5.57;100.00;102198.94;5059897;28;20056;-68
2023/12/16 06:54:59;;;;;;;53.08;6.32;;;;;;;5.68;100.00;102190.00;5060018;28;20033;-69
2023/12/16 06:57:26;;;;;;;69.25;8.50;;;;;;;5.63;100.00;102183.25;5043136;28;20035;-70
2023/12/16 06:59:51;;;;;;;66.28;7.43;;;;;;;5.79;100.00;102203.25;5042578;28;20024;-70
2023/12/16 07:02:16;;;;;;;59.05;7.38;;;;;;;5.86;100.00;102199.06;5077741;28;20522;-71
2023/12/16 07:04:42;;;;;;;51.15;6.70;;;;;;;5.92;100.00;102198.53;5078026;28;20060;-71
2023/12/16 07:07:07;;;;;;;60.42;7.20;;;;;;;5.95;100.00;102205.47;5076726;28;20032;-72
2023/12/16 07:09:33;;;;;;;58.17;7.00;;;;;;;5.99;100.00;102199.72;5078684;28;20021;-71
2023/12/16 07:11:58;;;;;;;68.18;8.02;;;;;;;5.79;100.00;102156.03;5043172;28;20222;-71
2023/12/16 07:14:27;;;;;;;44.53;5.43;;;;;;;5.94;100.00;102174.41;5059436;28;20037;-73
2023/12/16 07:16:53;;;;;;;47.92;5.80;;;;;;;6.06;100.00;102200.03;5038141;28;20418;-71
2023/12/16 07:19:18;;;;;;;54.60;7.32;;;;;;;6.06;100.00;102184.00;5062211;28;20059;-69
2023/12/16 07:21:43;;;;;;;51.47;6.10;;;;;;;6.06;100.00;102184.88;5071487;28;20040;-71
2023/12/16 07:24:09;;;;;;;52.90;6.53;;;;;;;5.99;100.00;102182.84;5075376;28;20483;-71
2023/12/16 07:26:34;;;;;;;43.88;5.35;;;;;;;6.11;100.00;102182.63;5063031;28;20471;-71
2023/12/16 07:29:00;;;;;;;30.50;4.70;;;;;;;6.14;100.00;102188.69;5071161;28;20083;-69
2023/12/16 07:31:26;;;;;;;42.60;5.72;;;;;;;6.15;100.00;102180.50;5043826;28;20032;-71
2023/12/16 07:33:51;;;;;;;39.30;6.60;;;;;;;6.06;100.00;102157.28;5042375;28;20102;-70
2023/12/16 07:36:17;;;;;;;46.15;6.80;;;;;;;6.16;100.00;102181.34;5042007;28;20040;-70
2023/12/16 07:38:42;;;;;;;46.28;6.22;;;;;;;6.00;100.00;102137.31;5058564;28;20123;-71
2023/12/16 07:41:08;;;;;;;40.80;6.93;;;;;;;6.19;100.00;102183.75;5076700;28;20053;-71
2023/12/16 07:43:33;;;;;;;42.25;6.28;;;;;;;6.11;100.00;102163.91;5041634;28;20128;-70
2023/12/16 07:45:58;;;;;;;33.30;5.78;;;;;;;6.08;100.00;102172.19;5057264;28;20086;-70
2023/12/16 07:48:24;;;;;;;37.95;5.90;;;;;;;6.14;100.00;102181.50;5056881;28;20115;-71
2023/12/16 07:50:53;;;;;;;37.25;5.82;;;;;;;6.06;100.00;102170.63;5056894;28;20041;-70
2023/12/16 07:53:22;;;;;;;30.83;5.05;;;;;;;6.11;100.00;102189.78;5040298;28;20119;-71
2023/12/16 07:55:49;;;;;;;32.13;5.18;;;;;;;6.12;100.00;102180.78;5074715;28;20033;-71
2023/12/16 07:58:15;;;;;;;27.17;4.60;;;;;;;6.19;100.00;102184.63;5074239;28;20433;-71
2023/12/16 08:00:42;;;;;;;26.23;4.65;;;;;;;6.19;100.00;102197.13;5057189;28;20433;-72
2023/12/16 08:03:07;;;;;;;31.98;5.22;;;;;;;6.05;100.00;102156.44;5057723;28;20036;-71
2023/12/16 08:05:33;;;;;;;28.73;5.55;;;;;;;6.18;100.00;102166.03;5025340;28;20031;-71
2023/12/16 08:07:59;;;;;;;28.20;5.22;;;;;;;6.23;100.00;102177.19;5058136;28;20050;-72
2023/12/16 08:10:24;;;;;;;33.75;6.00;;;;;;;6.27;100.00;102183.94;5076738;28;20055;-72
2023/12/16 08:12:50;;;;;;;35.20;6.55;;;;;;;6.30;100.00;102189.84;5041515;28;20048;-72
2023/12/16 08:15:16;;;;;;;32.15;5.55;;;;;;;6.29;100.00;102182.81;5058253;28;20032;-71
2023/12/16 08:17:42;;;;;;;37.10;6.97;;;;;;;6.33;100.00;102175.38;5058454;28;20034;-72
2023/12/16 08:20:08;;;;;;;39.83;7.82;;;;;;;6.34;100.00;102171.72;5057708;28;20024;-71
2023/12/16 08:22:34;;;;;;;39.03;8.13;;;;;;;6.34;100.00;102161.84;5041216;28;20024;-72
2023/12/16 08:25:00;;;;;;;39.65;8.63;;;;;;;6.33;100.00;102159.31;5075570;28;20046;-71
2023/12/16 08:27:26;;;;;;;35.28;8.45;;;;;;;6.33;100.00;102160.16;5076262;28;20040;-71
2023/12/16 08:29:51;;;;;;;36.70;7.93;;;;;;;6.35;100.00;102157.34;5057973;28;20099;-71
2023/12/16 08:32:16;;;;;;;35.50;7.80;;;;;;;6.38;100.00;102156.22;5074280;28;20032;-72
2023/12/16 08:34:42;;;;;;;34.10;7.57;;;;;;;6.40;100.00;102167.63;5038781;28;20033;-71
2023/12/16 08:37:07;;;;;;;34.80;8.43;;;;;;;6.38;100.00;102175.78;5075447;28;20131;-71
2023/12/16 08:39:33;;;;;;;35.90;8.82;;;;;;;6.35;100.00;102163.53;5057926;28;20040;-71
2023/12/16 08:41:58;;;;;;;37.30;8.32;;;;;;;6.41;100.00;102156.78;5024361;28;20084;-71
2023/12/16 08:44:23;;;;;;;39.20;8.73;;;;;;;6.40;100.00;102164.97;5057833;28;20037;-71
2023/12/16 08:46:49;;;;;;;39.17;9.52;;;;;;;6.46;100.00;102154.56;5057642;28;20028;-72
2023/12/16 08:49:14;;;;;;;44.28;9.88;;;;;;;6.44;100.00;102161.88;5041170;28;20048;-71
2023/12/16 08:51:40;;;;;;;50.60;10.45;;;;;;;6.32;100.00;102154.94;5041105;28;20036;-71
2023/12/16 08:54:05;;;;;;;51.20;11.10;;;;;;;6.28;100.00;102134.81;5056436;28;20109;-71
2023/12/16 08:56:31;;;;;;;45.65;10.60;;;;;;;6.41;100.00;102151.44;5057206;28;20072;-71
2023/12/16 08:58:56;;;;;;;57.33;10.13;;;;;;;6.57;100.00;102170.47;5075397;28;20479;-71
2023/12/16 09:01:21;;;;;;;61.58;10.32;;;;;;;6.56;100.00;102179.50;5058366;28;20028;-71
2023/12/16 09:03:47;;;;;;;58.35;11.05;;;;;;;6.60;100.00;102174.69;5057643;28;20112;-71
2023/12/16 09:06:13;;;;;;;49.20;9.52;;;;;;;6.52;100.00;102166.50;5075727;28;20032;-70
2023/12/16 09:08:38;;;;;;;50.03;10.40;;;;;;;6.36;100.00;102132.31;5043831;28;20105;-72
2023/12/16 09:11:04;;;;;;;60.10;11.10;;;;;;;6.58;100.00;102172.16;5060657;28;20059;-71
2023/12/16 09:13:31;;;;;;;50.47;9.50;;;;;;;6.50;100.00;102161.31;5067645;28;20093;-71
2023/12/16 09:15:57;;;;;;;58.33;10.88;;;;;;;6.61;100.00;102180.88;5038742;28;20020;-71
2023/12/16 09:18:22;;;;;;;60.03;11.32;;;;;;;6.56;100.00;102179.50;5039381;28;20048;-71
2023/12/16 09:20:48;;;;;;;79.07;12.45;;;;;;;6.48;100.00;102160.59;5056825;28;20028;-71
2023/12/16 09:23:13;;;;;;;76.70;12.57;;;;;;;6.53;100.00;102166.38;5040346;28;20056;-70
2023/12/16 09:25:38;;;;;;;79.03;12.70;;;;;;;6.48;100.00;102152.56;5039692;28;20018;-72
2023/12/16 09:28:04;;;;;;;78.03;12.45;;;;;;;6.29;100.00;102121.34;5056405;28;20365;-71
2023/12/16 09:30:29;;;;;;;82.28;13.15;;;;;;;6.52;100.00;102172.72;5058093;28;20020;-70
2023/12/16 09:32:58;;;;;;;83.30;12.45;;;;;;;6.57;100.00;102174.97;5060632;28;20059;-70
2023/12/16 09:35:24;;;;;;;80.40;13.02;;;;;;;6.59;100.00;102187.22;5042997;28;20027;-71
2023/12/16 09:37:49;;;;;;;94.80;13.27;;;;;;;6.59;100.00;102181.88;5043238;28;20036;-71
2023/12/16 09:40:16;;;;;;;73.63;12.32;;;;;;;6.62;100.00;102179.91;5059779;28;20048;-72
2023/12/16 09:42:44;;;;;;;89.68;12.85;;;;;;;6.56;100.00;102166.13;5060904;28;20025;-72
2023/12/16 09:45:15;;;;;;;78.80;11.88;;;;;;;6.64;100.00;102175.25;5077920;28;20028;-71
2023/12/16 09:47:42;;;;;;;77.60;12.27;;;;;;;6.67;100.00;102177.66;5060139;28;20259;-71
2023/12/16 09:50:09;;;;;;;92.53;12.38;;;;;;;6.44;100.00;102145.81;5079936;28;20017;-71
2023/12/16 09:52:35;;;;;;;71.72;11.88;;;;;;;6.71;100.00;102185.25;5060335;28;20028;-71
2023/12/16 09:55:00;;;;;;;80.82;11.77;;;;;;;6.58;100.00;102149.91;5026470;28;20073;-71
2023/12/16 09:57:28;;;;;;;83.82;12.27;;;;;;;6.77;100.00;102178.50;5078284;28;20031;-71
2023/12/16 09:59:54;;;;;;;70.07;10.90;;;;;;;6.79;100.00;102171.19;5060585;28;20043;-73
2023/12/16 10:02:27;;;;;;;73.55;10.32;;;;;;;6.78;100.00;102164.97;5060036;28;20119;-71
2023/12/16 10:04:57;;;;;;;82.13;10.60;;;;;;;6.88;100.00;102172.16;5060005;28;20029;-71
2023/12/16 10:07:23;;;;;;;75.88;10.65;;;;;;;6.93;100.00;102177.94;5059863;28;20098;-71
2023/12/16 10:09:49;;;;;;;70.25;9.73;;;;;;;6.96;100.00;102178.50;5081851;28;20025;-71
2023/12/16 10:12:14;;;;;;;65.07;8.98;;;;;;;6.83;100.00;102149.34;5079702;28;20494;-68
2023/12/16 10:14:47;;;;;;;90.40;10.82;;;;;;;6.88;100.00;102154.28;5079198;28;20028;-70
2023/12/16 10:17:17;;;;;;;79.38;10.38;;;;;;;7.01;100.00;102165.53;5078807;28;20028;-69
2023/12/16 10:19:44;;;;;;;69.35;9.50;;;;;;;7.06;100.00;102167.81;5078300;28;20043;-73
2023/12/16 10:22:12;;;;;;;80.22;9.38;;;;;;;6.87;100.00;102135.69;5079749;28;20028;-69
2023/12/16 10:24:37;;;;;;;74.00;9.45;;;;;;;7.08;100.00;102165.81;5079360;28;20032;-69
2023/12/16 10:27:04;;;;;;;79.95;10.30;;;;;;;7.05;100.00;102161.59;5079384;28;20501;-69
2023/12/16 10:29:33;;;;;;;73.18;10.65;;;;;;;7.03;100.00;102165.41;5060142;28;20045;-69
2023/12/16 10:31:58;;;;;;;66.05;9.40;;;;;;;7.01;100.00;102160.19;5058720;28;20265;-69
2023/12/16 10:34:27;;;;;;;69.60;9.48;;;;;;;6.99;100.00;102153.31;5042309;28;20151;-69
2023/12/16 10:37:02;;;;;;;75.07;9.25;;;;;;;6.87;100.00;102146.41;5076744;28;20029;-69
2023/12/16 10:39:27;;;;;;;73.40;8.80;;;;;;;6.96;100.00;102157.09;5060582;28;20028;-68
2023/12/16 10:41:52;;;;;;;68.93;9.82;;;;;;;6.87;100.00;102147.25;5041684;28;20059;-68
2023/12/16 10:44:18;;;;;;;74.65;9.43;;;;;;;6.91;100.00;102145.97;5041126;28;20563;-68
2023/12/16 10:46:46;;;;;;;88.60;9.02;;;;;;;6.90;100.00;102122.88;5041580;28;20024;-69
2023/12/16 10:49:15;;;;;;;73.43;8.85;;;;;;;6.98;100.00;102122.16;5076311;28;20028;-69
2023/12/16 10:51:44;;;;;;;56.38;7.80;;;;;;;6.97;100.00;102124.00;5076074;28;20029;-68
2023/12/16 10:54:21;;;;;;;78.15;10.73;;;;;;;6.94;100.00;102112.72;5057828;28;20075;-68
2023/12/16 10:56:58;;;;;;;63.70;9.93;;;;;;;6.76;100.00;102088.53;5076206;28;20052;-68
2023/12/16 10:59:37;;;;;;;58.65;8.13;;;;;;;6.90;100.00;102096.13;5073203;28;20102;-69
2023/12/16 11:02:11;;;;;;;68.47;9.85;;;;;;;6.85;100.00;102090.34;5075921;28;20100;-69
2023/12/16 11:04:38;;;;;;;;;;;;;;;6.81;100.00;102100.50;5060713;28;20024;-69
2023/12/16 11:07:06;;;;;;;70.25;9.55;;;;;;;6.81;100.00;102099.66;5039174;28;19928;-70
2023/12/16 11:09:33;;;;;;;67.25;10.52;;;;;;;6.75;100.00;102093.03;5076538;28;20076;-71
2023/12/16 11:12:01;;;;;;;61.67;9.38;;;;;;;6.76;100.00;102092.06;5076045;28;20060;-70